createdAt,value
2022-07-29T00:01:05.756Z,79.67
2022-07-29T00:06:11.888Z,80.15
2022-07-29T00:11:17.806Z,80.52
2022-07-29T00:16:24.099Z,80.56
2022-07-29T00:21:30.579Z,81.36
2022-07-29T00:26:36.553Z,81.20
2022-07-29T00:31:42.688Z,80.88
2022-07-29T00:36:48.776Z,80.95
2022-07-29T00:41:54.748Z,81.23
2022-07-29T00:47:00.708Z,81.37
2022-07-29T00:52:08.773Z,81.26
2022-07-29T00:57:15.570Z,80.81
2022-07-29T01:02:21.610Z,80.45
2022-07-29T01:07:28.965Z,80.36
2022-07-29T01:12:36.680Z,80.18
2022-07-29T01:17:53.534Z,79.95
2022-07-29T01:23:23.664Z,79.46
2022-07-29T01:29:08.437Z,79.32
2022-07-29T01:34:25.992Z,79.14
2022-07-29T01:39:36.029Z,79.14
2022-07-29T01:44:47.381Z,79.31
2022-07-29T01:49:56.252Z,79.04
2022-07-29T01:55:07.535Z,79.20
2022-07-29T02:00:16.194Z,79.13
2022-07-29T02:05:24.688Z,79.14
2022-07-29T02:10:33.690Z,79.18
2022-07-29T02:15:42.792Z,79.40
2022-07-29T02:20:53.942Z,79.41
2022-07-29T02:26:00.803Z,79.43
2022-07-29T02:31:07.733Z,79.64
2022-07-29T02:36:14.725Z,79.95
2022-07-29T02:41:24.272Z,80.17
2022-07-29T02:46:33.922Z,80.37
2022-07-29T02:51:45.077Z,80.39
2022-07-29T02:56:54.662Z,80.49
2022-07-29T03:02:03.136Z,80.78
2022-07-29T03:07:10.088Z,81.24
2022-07-29T03:12:17.115Z,81.32
2022-07-29T03:17:24.271Z,81.97
2022-07-29T03:22:31.630Z,82.31
2022-07-29T03:27:37.673Z,82.67
2022-07-29T03:32:44.435Z,82.99
2022-07-29T03:37:50.933Z,83.33
2022-07-29T03:42:59.054Z,83.44
2022-07-29T03:48:09.445Z,83.54
2022-07-29T03:53:15.850Z,83.64
2022-07-29T03:58:22.261Z,83.85
2022-07-29T04:03:28.419Z,84.00
2022-07-29T04:08:34.467Z,83.85
2022-07-29T04:13:40.683Z,83.44
2022-07-29T04:18:46.562Z,83.15
2022-07-29T04:23:53.938Z,82.88
2022-07-29T04:29:00.043Z,82.51
2022-07-29T04:34:06.301Z,76.05
2022-07-29T04:39:12.411Z,73.56
2022-07-29T04:44:19.638Z,73.70
2022-07-29T04:49:26.052Z,73.45
2022-07-29T04:54:31.929Z,73.00
2022-07-29T04:59:37.925Z,71.89
2022-07-29T05:04:43.985Z,67.87
2022-07-29T05:09:50.051Z,59.97
2022-07-29T05:14:56.153Z,52.77
2022-07-29T05:20:02.120Z,48.44
2022-07-29T05:25:10.556Z,43.18
2022-07-29T05:30:16.708Z,39.31
2022-07-29T05:35:22.765Z,36.66
2022-07-29T05:40:28.643Z,34.27
2022-07-29T05:45:34.841Z,33.00
2022-07-29T05:50:55.793Z,30.95
2022-07-29T05:56:06.445Z,29.96
2022-07-29T06:01:12.357Z,28.40
2022-07-29T06:06:18.714Z,28.10
2022-07-29T06:11:24.661Z,27.71
2022-07-29T06:16:30.876Z,26.69
2022-07-29T06:21:38.660Z,26.08
2022-07-29T06:26:48.279Z,25.45
2022-07-29T06:31:54.203Z,25.24
2022-07-29T06:37:00.017Z,24.83
2022-07-29T06:42:06.658Z,24.36
2022-07-29T06:47:13.228Z,23.58
2022-07-29T06:52:19.655Z,23.92
2022-07-29T06:57:25.633Z,23.53
2022-07-29T07:02:31.657Z,22.69
2022-07-29T07:07:40.391Z,23.36
2022-07-29T07:12:46.268Z,23.34
2022-07-29T07:17:52.203Z,23.34
2022-07-29T07:22:58.094Z,22.95
2022-07-29T07:28:04.279Z,22.54
2022-07-29T07:33:10.310Z,22.10
2022-07-29T07:38:14.707Z,21.95
2022-07-29T07:43:20.685Z,21.83
2022-07-29T07:48:25.013Z,21.29
2022-07-29T07:53:31.529Z,21.28
2022-07-29T07:58:39.545Z,20.79
2022-07-29T08:03:45.842Z,20.67
2022-07-29T08:08:52.068Z,20.61
2022-07-29T08:13:58.339Z,21.29
2022-07-29T08:19:04.202Z,21.49
2022-07-29T08:24:28.974Z,20.44
2022-07-29T08:29:35.081Z,21.25
2022-07-29T08:34:47.277Z,20.63
2022-07-29T08:39:53.280Z,20.64
2022-07-29T08:44:59.746Z,21.77
2022-07-29T08:50:06.683Z,22.02
2022-07-29T08:55:13.790Z,21.69
2022-07-29T09:00:22.358Z,20.87
2022-07-29T09:05:27.727Z,22.55
2022-07-29T09:10:34.036Z,23.49
2022-07-29T09:15:40.143Z,24.15
2022-07-29T09:21:13.715Z,24.45
2022-07-29T09:26:19.578Z,25.13
2022-07-29T09:31:33.661Z,24.85
2022-07-29T09:36:44.614Z,24.43
2022-07-29T09:41:55.624Z,24.33
2022-07-29T09:47:09.550Z,23.53
2022-07-29T09:52:15.522Z,23.56
2022-07-29T09:57:31.220Z,22.93
2022-07-29T10:02:39.793Z,24.12
2022-07-29T10:07:53.623Z,24.02
2022-07-29T10:13:06.441Z,24.52
2022-07-29T10:18:17.512Z,25.97
2022-07-29T10:23:23.635Z,26.64
2022-07-29T10:28:30.733Z,26.64
2022-07-29T10:33:56.393Z,27.30
2022-07-29T10:39:15.508Z,28.67
2022-07-29T10:44:23.178Z,29.61
2022-07-29T10:49:31.097Z,29.00
2022-07-29T10:54:44.066Z,28.31
2022-07-29T10:59:52.945Z,27.97
2022-07-29T11:05:07.277Z,27.08
2022-07-29T11:10:31.117Z,27.35
2022-07-29T11:15:58.279Z,27.61
2022-07-29T11:21:04.353Z,27.06
2022-07-29T11:26:26.110Z,26.35
2022-07-29T11:31:39.165Z,27.20
2022-07-29T11:37:18.429Z,28.03
2022-07-29T11:42:53.260Z,29.24
2022-07-29T11:48:27.731Z,29.61
2022-07-29T11:53:29.142Z,29.37
2022-07-29T11:58:40.110Z,30.45
2022-07-29T12:03:46.918Z,29.74
2022-07-29T12:08:57.080Z,29.50
2022-07-29T12:14:03.893Z,29.26
2022-07-29T12:19:10.028Z,29.29
2022-07-29T12:24:16.846Z,29.32
2022-07-29T12:29:34.459Z,30.33
2022-07-29T12:34:41.965Z,31.15
2022-07-29T12:39:48.204Z,32.10
2022-07-29T12:44:54.010Z,32.18
2022-07-29T12:50:13.114Z,30.61
2022-07-29T12:55:39.092Z,31.15
2022-07-29T13:00:45.891Z,32.43
2022-07-29T13:05:53.767Z,32.49
2022-07-29T13:10:59.816Z,32.03
2022-07-29T13:16:10.167Z,31.90
2022-07-29T13:21:18.958Z,31.98
2022-07-29T13:26:25.105Z,32.52
2022-07-29T13:31:31.409Z,32.65
2022-07-29T13:36:41.505Z,32.82
2022-07-29T13:41:47.892Z,32.20
2022-07-29T13:46:55.161Z,32.25
2022-07-29T13:52:01.357Z,31.84
2022-07-29T13:57:08.282Z,31.76
2022-07-29T14:02:15.597Z,32.35
2022-07-29T14:07:21.849Z,32.42
2022-07-29T14:12:27.930Z,32.03
2022-07-29T14:17:34.000Z,31.14
2022-07-29T14:22:42.624Z,31.73
2022-07-29T14:27:51.493Z,31.29
2022-07-29T14:32:57.481Z,32.36
2022-07-29T14:38:03.362Z,32.66
2022-07-29T14:43:09.170Z,33.04
2022-07-29T14:48:15.476Z,33.52
2022-07-29T14:53:21.454Z,33.33
2022-07-29T14:58:27.369Z,33.29
2022-07-29T15:03:33.907Z,33.33
2022-07-29T15:08:39.800Z,33.76
2022-07-29T15:13:45.707Z,33.63
2022-07-29T15:18:51.904Z,33.13
2022-07-29T15:23:58.126Z,33.55
2022-07-29T15:29:04.173Z,33.62
2022-07-29T15:34:10.062Z,33.58
2022-07-29T15:39:16.645Z,33.98
2022-07-29T15:44:22.857Z,34.08
2022-07-29T15:49:47.689Z,33.78
2022-07-29T15:54:56.799Z,34.39
2022-07-29T16:00:03.204Z,34.22
2022-07-29T16:05:14.044Z,35.01
2022-07-29T16:10:20.062Z,35.18
2022-07-29T16:15:26.022Z,34.97
2022-07-29T16:20:31.982Z,35.40
2022-07-29T16:25:59.246Z,35.66
2022-07-29T16:31:06.016Z,35.66
2022-07-29T16:36:13.182Z,35.24
2022-07-29T16:41:19.462Z,35.36
2022-07-29T16:46:25.871Z,35.50
2022-07-29T16:51:32.134Z,35.55
2022-07-29T16:56:38.512Z,35.72
2022-07-29T17:01:46.504Z,35.50
2022-07-29T17:06:52.770Z,35.89
2022-07-29T17:11:58.610Z,36.14
2022-07-29T17:17:12.271Z,36.25
2022-07-29T17:22:20.119Z,36.79
2022-07-29T17:27:26.093Z,37.32
2022-07-29T17:32:36.380Z,37.65
2022-07-29T17:37:42.305Z,38.27
2022-07-29T17:42:48.273Z,38.40
2022-07-29T17:47:54.146Z,39.12
2022-07-29T17:52:59.899Z,39.40
2022-07-29T17:58:05.737Z,39.79
2022-07-29T18:03:12.386Z,39.96
2022-07-29T18:08:18.478Z,40.32
2022-07-29T18:13:24.713Z,40.96
2022-07-29T18:18:30.553Z,41.30
2022-07-29T18:23:36.392Z,41.81
2022-07-29T18:28:42.556Z,42.39
2022-07-29T18:33:48.818Z,42.58
2022-07-29T18:38:54.766Z,43.14
2022-07-29T18:44:00.960Z,43.41
2022-07-29T18:49:07.412Z,43.72
2022-07-29T18:54:13.360Z,44.02
2022-07-29T18:59:21.414Z,43.96
2022-07-29T19:04:27.697Z,44.09
2022-07-29T19:09:34.783Z,44.31
2022-07-29T19:14:49.700Z,44.36
2022-07-29T19:19:55.889Z,44.47
2022-07-29T19:25:01.914Z,44.39
2022-07-29T19:30:09.859Z,44.56
2022-07-29T19:35:25.243Z,44.68
2022-07-29T19:40:31.706Z,44.93
2022-07-29T19:45:38.205Z,45.35
2022-07-29T19:50:45.051Z,45.65
2022-07-29T19:55:51.263Z,46.00
2022-07-29T20:00:57.106Z,46.21
2022-07-29T20:06:02.978Z,46.57
2022-07-29T20:11:09.173Z,46.84
2022-07-29T20:16:15.311Z,47.09
2022-07-29T20:21:23.139Z,47.22
2022-07-29T20:26:29.568Z,47.49
2022-07-29T20:31:36.280Z,47.80
2022-07-29T20:36:42.406Z,48.13
2022-07-29T20:41:52.695Z,48.25
2022-07-29T20:46:59.149Z,48.51
2022-07-29T20:52:06.053Z,48.66
2022-07-29T20:57:11.954Z,48.94
2022-07-29T21:02:17.831Z,49.23
2022-07-29T21:07:23.814Z,49.38
2022-07-29T21:12:30.379Z,49.65
2022-07-29T21:17:38.877Z,49.83
2022-07-29T21:22:44.968Z,50.06
2022-07-29T21:28:10.342Z,50.14
2022-07-29T21:33:16.500Z,50.45
2022-07-29T21:38:22.617Z,50.56
2022-07-29T21:43:28.938Z,50.92
2022-07-29T21:48:35.013Z,50.92
2022-07-29T21:53:42.441Z,51.03
2022-07-29T21:58:49.958Z,51.39
2022-07-29T22:03:56.038Z,51.62
2022-07-29T22:09:01.902Z,51.76
2022-07-29T22:14:08.094Z,51.96
2022-07-29T22:19:14.493Z,52.12
2022-07-29T22:24:20.668Z,52.30
2022-07-29T22:29:27.371Z,52.57
2022-07-29T22:34:37.800Z,52.75
2022-07-29T22:39:44.050Z,52.88
2022-07-29T22:44:50.357Z,53.17
2022-07-29T22:49:56.721Z,53.42
2022-07-29T22:55:02.508Z,53.81
2022-07-29T23:00:10.796Z,53.73
2022-07-29T23:05:17.121Z,53.94
2022-07-29T23:10:23.370Z,54.16
2022-07-29T23:15:29.304Z,54.41
2022-07-29T23:20:35.725Z,54.42
2022-07-29T23:25:41.605Z,54.63
2022-07-29T23:30:47.530Z,54.68
2022-07-29T23:35:53.557Z,54.88
2022-07-29T23:41:01.576Z,54.88
2022-07-29T23:46:07.593Z,55.14
2022-07-29T23:51:14.573Z,55.07
2022-07-29T23:56:20.680Z,55.40
